Time;durP1;ratioP1;P1;durP2;ratioP2;P2;SDS_P1;SDS_P2;PMS_P1;PMS_P2;Temp;Humidity;BMP_temperature;BMP_pressure;BME280_temperature;BME280_humidity;BME280_pressure;Samples;Min_cycle;Max_cycle;Signal;HPM_P1;HPM_P2
2023/08/05 00:00:59;;;;;;;;;;;22.00;90.30;;;;;;5092089;28;19965;-68
2023/08/05 00:03:24;;;;;;;;;;;22.00;90.40;;;;;;5089205;28;19912;-69
2023/08/05 00:05:50;;;;;;;;;;;22.00;90.40;;;;;;5089492;28;19912;-69
2023/08/05 00:08:15;;;;;;;;;;;22.00;90.40;;;;;;5094728;28;19998;-68
2023/08/05 00:10:41;;;;;;;;;;;22.00;90.40;;;;;;5079078;28;19935;-67
2023/08/05 00:13:07;;;;;;;;;;;22.00;90.40;;;;;;5088923;28;19912;-68
2023/08/05 00:15:32;;;;;;;;;;;22.00;90.40;;;;;;5064925;28;19939;-68
2023/08/05 00:17:58;;;;;;;;;;;22.00;90.40;;;;;;5075705;28;19912;-67
2023/08/05 00:20:23;;;;;;;;;;;21.90;90.40;;;;;;5090825;28;19912;-69
2023/08/05 00:22:49;;;;;;;;;;;22.00;90.40;;;;;;5095520;28;19912;-69
2023/08/05 00:25:14;;;;;;;;;;;22.00;90.40;;;;;;5095819;28;19969;-69
2023/08/05 00:27:40;;;;;;;;;;;22.00;90.40;;;;;;5090324;28;20007;-68
2023/08/05 00:30:05;;;;;;;;;;;22.00;90.40;;;;;;5107992;28;19908;-68
2023/08/05 00:32:34;;;;;;;;;;;22.00;90.40;;;;;;5074930;28;19919;-68
2023/08/05 00:34:59;;;;;;;;;;;22.00;90.40;;;;;;5075405;28;19913;-68
2023/08/05 00:37:25;;;;;;;;;;;22.00;90.40;;;;;;5075632;28;19957;-69
2023/08/05 00:39:50;;;;;;;;;;;22.00;90.40;;;;;;5076097;28;19908;-57
2023/08/05 00:42:18;;;;;;;;;;;22.00;90.40;;;;;;5083266;28;19913;-69
2023/08/05 00:44:44;;;;;;;;;;;22.00;90.40;;;;;;5093168;28;19920;-67
2023/08/05 00:47:10;;;;;;;;;;;22.00;90.40;;;;;;5088941;28;19925;-69
2023/08/05 00:49:36;;;;;;;;;;;22.00;90.40;;;;;;5080676;28;20037;-67
2023/08/05 00:52:01;;;;;;;;;;;22.00;90.40;;;;;;5089436;28;19916;-68
2023/08/05 00:54:27;;;;;;;;;;;22.00;90.40;;;;;;5084889;28;19912;-68
2023/08/05 00:56:53;;;;;;;;;;;22.00;90.40;;;;;;5083542;28;19978;-68
2023/08/05 00:59:19;;;;;;;;;;;22.00;90.40;;;;;;5093214;28;19965;-68
2023/08/05 01:01:45;;;;;;;;;;;22.00;90.40;;;;;;5093172;28;19916;-61
2023/08/05 01:04:10;;;;;;;;;;;22.00;90.40;;;;;;5081127;28;20355;-67
2023/08/05 01:06:36;;;;;;;;;;;22.00;90.40;;;;;;5074413;28;19954;-67
2023/08/05 01:09:01;;;;;;;;;;;21.90;90.40;;;;;;5091807;28;19916;-67
2023/08/05 01:11:27;;;;;;;;;;;21.90;90.40;;;;;;5093519;28;19916;-68
2023/08/05 01:13:52;;;;;;;;;;;22.00;90.40;;;;;;5089716;28;19935;-67
2023/08/05 01:16:18;;;;;;;;;;;21.90;90.40;;;;;;5072576;28;20211;-67
2023/08/05 01:18:43;;;;;;;;;;;22.00;90.40;;;;;;5080999;28;19908;-67
2023/08/05 01:21:22;;;;;;;;;;;22.00;90.40;;;;;;5093201;28;19961;-67
2023/08/05 01:23:47;;;;;;;;;;;21.90;90.40;;;;;;5093394;28;19908;-68
2023/08/05 01:26:13;;;;;;;;;;;21.90;90.60;;;;;;5076442;28;20392;-67
2023/08/05 01:28:39;;;;;;;;;;;21.90;90.40;;;;;;5089093;28;20449;-67
2023/08/05 01:31:06;;;;;;;;;;;21.90;90.40;;;;;;5093189;28;19912;-68
2023/08/05 01:33:32;;;;;;;;;;;21.90;90.40;;;;;;5093314;28;19918;-68
2023/08/05 01:35:58;;;;;;;;;;;21.90;90.40;;;;;;5083885;28;19966;-69
2023/08/05 01:38:23;;;;;;;;;;;21.90;90.50;;;;;;5086460;28;19912;-68
2023/08/05 01:40:49;;;;;;;;;;;21.90;90.50;;;;;;5092101;28;19916;-65
2023/08/05 01:43:14;;;;;;;;;;;21.90;90.50;;;;;;5077477;28;20421;-67
2023/08/05 01:45:39;;;;;;;;;;;21.90;89.30;;;;;;5089044;28;19927;-68
2023/08/05 01:48:05;;;;;;;;;;;21.90;90.00;;;;;;5088683;28;21121;-67
2023/08/05 01:50:30;;;;;;;;;;;21.90;90.20;;;;;;5079026;28;19935;-66
2023/08/05 01:52:56;;;;;;;;;;;21.90;90.30;;;;;;5086259;28;19939;-67
2023/08/05 01:55:21;;;;;;;;;;;21.90;90.40;;;;;;5077860;28;19942;-68
2023/08/05 01:57:47;;;;;;;;;;;21.90;90.40;;;;;;5073950;28;20352;-68
2023/08/05 02:00:12;;;;;;;;;;;21.90;90.40;;;;;;5085718;28;19913;-68
2023/08/05 02:02:38;;;;;;;;;;;21.90;90.40;;;;;;5071848;28;19916;-69
2023/08/05 02:05:03;;;;;;;;;;;21.90;90.40;;;;;;5073497;28;19908;-69
2023/08/05 02:07:29;;;;;;;;;;;21.90;90.40;;;;;;5073952;28;19912;-69
2023/08/05 02:09:54;;;;;;;;;;;21.90;90.40;;;;;;5072651;28;20086;-68
2023/08/05 02:12:20;;;;;;;;;;;21.90;90.50;;;;;;5073477;28;19913;-69
2023/08/05 02:14:45;;;;;;;;;;;21.90;90.50;;;;;;5073813;28;19935;-68
2023/08/05 02:17:11;;;;;;;;;;;21.90;90.50;;;;;;5073250;28;19954;-68
2023/08/05 02:19:36;;;;;;;;;;;21.90;90.50;;;;;;5074034;28;19908;-68
2023/08/05 02:22:02;;;;;;;;;;;21.90;90.50;;;;;;5073786;28;20313;-67
2023/08/05 02:24:27;;;;;;;;;;;21.90;90.50;;;;;;5073826;28;19914;-68
2023/08/05 02:26:52;;;;;;;;;;;21.90;90.50;;;;;;5073336;28;19909;-68
2023/08/05 02:29:18;;;;;;;;;;;21.90;90.50;;;;;;5073706;28;19912;-68
2023/08/05 02:31:43;;;;;;;;;;;21.90;90.50;;;;;;5073653;28;19919;-68
2023/08/05 02:34:09;;;;;;;;;;;21.90;90.50;;;;;;5073415;28;19993;-68
2023/08/05 02:36:34;;;;;;;;;;;21.90;90.40;;;;;;5090411;28;19908;-68
2023/08/05 02:39:00;;;;;;;;;;;21.90;90.40;;;;;;5092603;28;19917;-68
2023/08/05 02:41:25;;;;;;;;;;;21.90;90.40;;;;;;5076590;28;19912;-68
2023/08/05 02:43:51;;;;;;;;;;;21.90;90.40;;;;;;5077821;28;19912;-66
2023/08/05 02:46:16;;;;;;;;;;;21.90;90.40;;;;;;5085726;28;20425;-67
2023/08/05 02:48:42;;;;;;;;;;;21.90;90.40;;;;;;5077094;28;19920;-67
2023/08/05 02:51:07;;;;;;;;;;;21.90;90.40;;;;;;5092328;28;20010;-66
2023/08/05 02:53:33;;;;;;;;;;;21.90;90.40;;;;;;5087327;28;20332;-67
2023/08/05 02:55:58;;;;;;;;;;;21.90;90.40;;;;;;5077233;28;19955;-67
2023/08/05 02:58:24;;;;;;;;;;;21.90;90.40;;;;;;5078043;28;19920;-67
2023/08/05 03:00:49;;;;;;;;;;;21.90;90.40;;;;;;5092128;28;19965;-67
2023/08/05 03:03:15;;;;;;;;;;;21.90;90.40;;;;;;5093531;28;19962;-67
2023/08/05 03:05:41;;;;;;;;;;;21.90;90.40;;;;;;5080244;28;20286;-67
2023/08/05 03:08:06;;;;;;;;;;;21.90;90.40;;;;;;5079029;28;19920;-67
2023/08/05 03:10:32;;;;;;;;;;;21.90;90.40;;;;;;5078171;28;19920;-66
2023/08/05 03:12:57;;;;;;;;;;;21.90;90.40;;;;;;5093374;28;19912;-67
2023/08/05 03:15:26;;;;;;;;;;;21.90;90.50;;;;;;5091874;28;19923;-67
2023/08/05 03:17:52;;;;;;;;;;;21.90;90.50;;;;;;5084792;28;19919;-66
2023/08/05 03:20:23;;;;;;;;;;;21.90;90.50;;;;;;5074155;28;19913;-67
2023/08/05 03:22:49;;;;;;;;;;;21.90;90.50;;;;;;5079791;28;19916;-67
2023/08/05 03:25:14;;;;;;;;;;;21.90;90.50;;;;;;5095740;28;19912;-67
2023/08/05 03:27:40;;;;;;;;;;;21.90;90.50;;;;;;5093907;28;19913;-67
2023/08/05 03:30:05;;;;;;;;;;;21.90;90.50;;;;;;5086097;28;20351;-66
2023/08/05 03:32:31;;;;;;;;;;;21.90;90.50;;;;;;5083933;28;19923;-67
2023/08/05 03:34:56;;;;;;;;;;;21.90;90.50;;;;;;5094346;28;19920;-67
2023/08/05 03:37:22;;;;;;;;;;;21.90;90.50;;;;;;5096507;28;20330;-67
2023/08/05 03:39:48;;;;;;;;;;;21.90;90.40;;;;;;5087172;28;19913;-62
2023/08/05 03:42:13;;;;;;;;;;;21.90;90.50;;;;;;5086534;28;20015;-67
2023/08/05 03:44:42;;;;;;;;;;;21.80;90.50;;;;;;5088979;28;19931;-66
2023/08/05 03:47:07;;;;;;;;;;;21.80;90.50;;;;;;5095499;28;19958;-66
2023/08/05 03:49:33;;;;;;;;;;;21.80;90.50;;;;;;5093053;28;19955;-63
2023/08/05 03:51:59;;;;;;;;;;;21.80;90.50;;;;;;5074705;28;19978;-67
2023/08/05 03:54:24;;;;;;;;;;;21.80;90.50;;;;;;5085540;28;19916;-67
2023/08/05 03:56:51;;;;;;;;;;;21.80;90.50;;;;;;5082442;28;19916;-66
2023/08/05 03:59:16;;;;;;;;;;;21.80;90.50;;;;;;5081254;28;20275;-66
2023/08/05 04:01:43;;;;;;;;;;;21.80;90.50;;;;;;5086856;28;19913;-67
2023/08/05 04:04:08;;;;;;;;;;;21.80;90.50;;;;;;5085375;28;19912;-66
2023/08/05 04:06:34;;;;;;;;;;;21.80;90.50;;;;;;5083398;28;19913;-66
2023/08/05 04:08:59;;;;;;;;;;;21.80;90.50;;;;;;5075891;28;19909;-67
2023/08/05 04:11:26;;;;;;;;;;;21.80;90.50;;;;;;5075834;28;19920;-66
2023/08/05 04:13:52;;;;;;;;;;;21.80;90.50;;;;;;5075763;28;19912;-67
2023/08/05 04:16:18;;;;;;;;;;;21.80;90.50;;;;;;5075791;28;19915;-66
2023/08/05 04:18:46;;;;;;;;;;;21.80;90.50;;;;;;5076343;28;19995;-66
2023/08/05 04:21:11;;;;;;;;;;;21.80;90.50;;;;;;5088086;28;20262;-67
2023/08/05 04:23:37;;;;;;;;;;;21.80;90.50;;;;;;5095338;28;19954;-67
2023/08/05 04:26:05;;;;;;;;;;;21.80;90.60;;;;;;5075928;28;20293;-66
2023/08/05 04:28:31;;;;;;;;;;;21.80;90.60;;;;;;5075084;28;19988;-66
2023/08/05 04:30:57;;;;;;;;;;;21.80;90.50;;;;;;5075323;28;19944;-67
2023/08/05 04:33:25;;;;;;;;;;;21.80;90.50;;;;;;5075534;28;19959;-67
2023/08/05 04:35:51;;;;;;;;;;;21.80;90.60;;;;;;5094503;28;19916;-67
2023/08/05 04:38:16;;;;;;;;;;;21.80;90.60;;;;;;5095448;28;19908;-67
2023/08/05 04:40:42;;;;;;;;;;;21.80;90.60;;;;;;5084086;28;20016;-67
2023/08/05 04:43:08;;;;;;;;;;;21.80;90.60;;;;;;5075183;28;19916;-67
2023/08/05 04:45:36;;;;;;;;;;;21.80;90.60;;;;;;5075169;28;19975;-66
2023/08/05 04:48:04;;;;;;;;;;;21.80;90.60;;;;;;5075161;28;19909;-67
2023/08/05 04:50:29;;;;;;;;;;;21.80;90.60;;;;;;5073692;28;19994;-61
2023/08/05 04:52:55;;;;;;;;;;;21.80;90.60;;;;;;5094434;28;20303;-67
2023/08/05 04:55:20;;;;;;;;;;;21.80;90.60;;;;;;5082968;28;19967;-67
2023/08/05 04:57:46;;;;;;;;;;;21.80;90.60;;;;;;5073616;28;19908;-66
2023/08/05 05:00:12;;;;;;;;;;;21.80;90.60;;;;;;5074768;28;19923;-66
2023/08/05 05:02:38;;;;;;;;;;;21.80;90.60;;;;;;5081716;28;19919;-67
2023/08/05 05:05:04;;;;;;;;;;;21.80;90.60;;;;;;5094985;28;19908;-62
2023/08/05 05:07:29;;;;;;;;;;;21.80;90.30;;;;;;5094228;28;19999;-65
2023/08/05 05:09:55;;;;;;;;;;;21.80;89.50;;;;;;5074813;28;19919;-63
2023/08/05 05:12:20;;;;;;;;;;;21.80;89.00;;;;;;5074330;28;19959;-68
2023/08/05 05:14:46;;;;;;;;;;;21.80;89.10;;;;;;5086113;28;19916;-67
2023/08/05 05:17:15;;;;;;;;;;;21.70;90.20;;;;;;5086083;28;19912;-67
2023/08/05 05:19:41;;;;;;;;;;;21.70;90.10;;;;;;5074251;28;19909;-66
2023/08/05 05:22:06;;;;;;;;;;;21.70;90.00;;;;;;5074558;28;19996;-65
2023/08/05 05:24:32;;;;;;;;;;;21.70;89.50;;;;;;5072100;28;20329;-64
2023/08/05 05:26:57;;;;;;;;;;;21.70;89.30;;;;;;5094372;28;20272;-62
2023/08/05 05:29:23;;;;;;;;;;;21.70;89.10;;;;;;5080264;28;19919;-73
2023/08/05 05:31:49;;;;;;;;;;;21.70;88.90;;;;;;5074234;28;19917;-65
2023/08/05 05:34:14;;;;;;;;;;;21.70;88.80;;;;;;5073935;28;20271;-65
2023/08/05 05:36:40;;;;;;;;;;;21.70;89.30;;;;;;5074528;28;19908;-72
2023/08/05 05:39:05;;;;;;;;;;;21.70;88.90;;;;;;5083677;28;19919;-68
2023/08/05 05:41:31;;;;;;;;;;;21.70;89.10;;;;;;5094200;28;19908;-71
2023/08/05 05:43:58;;;;;;;;;;;21.70;89.90;;;;;;5076489;28;20040;-71
2023/08/05 05:46:24;;;;;;;;;;;21.70;90.10;;;;;;5073061;28;19956;-71
2023/08/05 05:48:49;;;;;;;;;;;21.70;90.10;;;;;;5074114;28;19965;-71
2023/08/05 05:51:15;;;;;;;;;;;21.70;90.10;;;;;;5073886;28;20285;-70
2023/08/05 05:53:40;;;;;;;;;;;21.70;90.20;;;;;;5071622;28;19916;-71
2023/08/05 05:56:06;;;;;;;;;;;21.70;90.20;;;;;;5071817;28;19958;-70
2023/08/05 05:58:35;;;;;;;;;;;21.70;90.20;;;;;;5075811;28;19912;-70
2023/08/05 06:01:01;;;;;;;;;;;21.70;90.20;;;;;;5075485;28;20317;-60
2023/08/05 06:03:27;;;;;;;;;;;21.70;90.20;;;;;;5070503;28;19912;-71
2023/08/05 06:05:52;;;;;;;;;;;21.70;90.20;;;;;;5073905;28;19923;-71
2023/08/05 06:08:18;;;;;;;;;;;21.70;90.20;;;;;;5073547;28;19908;-69
2023/08/05 06:10:43;;;;;;;;;;;21.70;90.20;;;;;;5087103;28;19957;-72
2023/08/05 06:13:09;;;;;;;;;;;21.70;90.20;;;;;;5090871;28;19927;-72
2023/08/05 06:15:37;;;;;;;;;;;21.70;90.30;;;;;;5093904;28;20379;-72
2023/08/05 06:18:03;;;;;;;;;;;21.70;90.40;;;;;;5093998;28;19951;-72
2023/08/05 06:20:28;;;;;;;;;;;21.70;90.40;;;;;;5093972;28;19912;-72
2023/08/05 06:22:54;;;;;;;;;;;21.60;90.50;;;;;;5092696;28;19915;-72
2023/08/05 06:25:19;;;;;;;;;;;21.70;90.50;;;;;;5093737;28;19908;-72
2023/08/05 06:27:45;;;;;;;;;;;21.70;90.50;;;;;;5094030;28;19908;-72
2023/08/05 06:30:10;;;;;;;;;;;21.70;90.60;;;;;;5093866;28;19908;-72
2023/08/05 06:32:36;;;;;;;;;;;21.60;90.60;;;;;;5093980;28;19919;-71
2023/08/05 06:35:01;;;;;;;;;;;21.60;90.50;;;;;;5093851;28;19912;-72
2023/08/05 06:37:27;;;;;;;;;;;21.70;90.60;;;;;;5093549;28;19908;-72
2023/08/05 06:39:52;;;;;;;;;;;21.60;90.60;;;;;;5092524;28;19917;-72
2023/08/05 06:42:18;;;;;;;;;;;21.60;90.60;;;;;;5093846;28;19908;-72
2023/08/05 06:44:44;;;;;;;;;;;21.60;90.60;;;;;;5093353;28;19927;-72
2023/08/05 06:47:09;;;;;;;;;;;21.60;90.60;;;;;;5093312;28;20349;-72
2023/08/05 06:49:35;;;;;;;;;;;21.60;90.60;;;;;;5093902;28;19962;-72
2023/08/05 06:52:01;;;;;;;;;;;21.60;90.60;;;;;;5095926;28;19920;-72
2023/08/05 06:54:26;;;;;;;;;;;21.60;90.60;;;;;;5097332;28;19957;-72
2023/08/05 06:56:52;;;;;;;;;;;21.60;90.70;;;;;;5097405;28;19980;-72
2023/08/05 06:59:17;;;;;;;;;;;21.60;90.70;;;;;;5097464;28;19908;-72
2023/08/05 07:01:43;;;;;;;;;;;21.60;90.70;;;;;;5097366;28;19915;-72
2023/08/05 07:04:08;;;;;;;;;;;21.60;90.70;;;;;;5097339;28;20007;-72
2023/08/05 07:06:34;;;;;;;;;;;21.60;90.70;;;;;;5097167;28;19908;-72
2023/08/05 07:08:59;;;;;;;;;;;21.60;90.70;;;;;;5097389;28;19912;-72
2023/08/05 07:11:25;;;;;;;;;;;21.60;90.70;;;;;;5097021;28;19955;-72
2023/08/05 07:13:50;;;;;;;;;;;21.60;90.70;;;;;;5097233;28;19990;-72
2023/08/05 07:16:16;;;;;;;;;;;21.60;90.70;;;;;;5097124;28;19915;-72
2023/08/05 07:18:41;;;;;;;;;;;21.60;90.70;;;;;;5096792;28;19908;-72
2023/08/05 07:21:06;;;;;;;;;;;21.60;90.70;;;;;;5096754;28;20317;-70
2023/08/05 07:23:32;;;;;;;;;;;21.60;90.90;;;;;;5095801;28;19908;-72
2023/08/05 07:26:01;;;;;;;;;;;21.60;90.70;;;;;;5096954;28;19908;-71
2023/08/05 07:28:26;;;;;;;;;;;21.60;90.70;;;;;;5096678;28;19919;-72
2023/08/05 07:31:02;;;;;;;;;;;21.60;90.70;;;;;;5096810;28;19908;-72
2023/08/05 07:33:27;;;;;;;;;;;21.60;90.70;;;;;;5096676;28;20271;-71
2023/08/05 07:35:53;;;;;;;;;;;21.60;90.70;;;;;;5096367;28;19908;-71
2023/08/05 07:38:23;;;;;;;;;;;21.60;90.70;;;;;;5096578;28;19918;-71
2023/08/05 07:40:48;;;;;;;;;;;21.60;90.80;;;;;;5096495;28;20014;-71
2023/08/05 07:43:15;;;;;;;;;;;21.60;90.80;;;;;;5096425;28;20392;-71
2023/08/05 07:45:40;;;;;;;;;;;21.50;90.80;;;;;;5096340;28;19920;-72
2023/08/05 07:48:08;;;;;;;;;;;21.60;90.80;;;;;;5096133;28;19957;-71
2023/08/05 07:50:34;;;;;;;;;;;21.50;90.70;;;;;;5096478;28;19908;-71
2023/08/05 07:52:59;;;;;;;;;;;21.60;90.80;;;;;;5096210;28;20259;-71
2023/08/05 07:55:29;;;;;;;;;;;21.60;90.80;;;;;;5096307;28;19957;-71
2023/08/05 07:57:55;;;;;;;;;;;21.60;90.80;;;;;;5095942;28;19908;-71
2023/08/05 08:00:20;;;;;;;;;;;21.50;90.80;;;;;;5096218;28;19962;-71
2023/08/05 08:02:46;;;;;;;;;;;21.50;90.80;;;;;;5095220;28;19961;-71
2023/08/05 08:05:14;;;;;;;;;;;21.50;90.80;;;;;;5096117;28;19974;-71
2023/08/05 08:07:44;;;;;;;;;;;21.50;90.80;;;;;;5096112;28;19916;-70
2023/08/05 08:10:10;;;;;;;;;;;21.50;90.80;;;;;;5096163;28;19915;-71
2023/08/05 08:12:36;;;;;;;;;;;21.50;90.80;;;;;;5095662;28;19916;-71
2023/08/05 08:15:02;;;;;;;;;;;21.50;90.80;;;;;;5095511;28;19919;-71
2023/08/05 08:17:27;;;;;;;;;;;21.50;90.80;;;;;;5095779;28;19957;-71
2023/08/05 08:19:53;;;;;;;;;;;21.50;90.80;;;;;;5095566;28;19958;-71
2023/08/05 08:22:18;;;;;;;;;;;21.50;90.80;;;;;;5095797;28;19919;-71
2023/08/05 08:24:44;;;;;;;;;;;21.50;90.80;;;;;;5095845;28;19912;-71
2023/08/05 08:27:09;;;;;;;;;;;21.50;90.80;;;;;;5095494;28;19977;-71
2023/08/05 08:29:35;;;;;;;;;;;21.50;90.80;;;;;;5095345;28;19915;-71
2023/08/05 08:32:00;;;;;;;;;;;21.50;90.80;;;;;;5095462;28;19997;-71
2023/08/05 08:34:26;;;;;;;;;;;21.50;90.80;;;;;;5095136;28;20279;-71
2023/08/05 08:36:51;;;;;;;;;;;21.50;90.80;;;;;;5095229;28;19912;-71
2023/08/05 08:39:17;;;;;;;;;;;21.50;90.80;;;;;;5095053;28;20389;-71
2023/08/05 08:41:45;;;;;;;;;;;21.50;90.80;;;;;;5095418;28;19908;-71
2023/08/05 08:44:11;;;;;;;;;;;21.50;90.80;;;;;;5095075;28;19908;-71
2023/08/05 08:46:37;;;;;;;;;;;21.50;90.80;;;;;;5095129;28;20041;-71
2023/08/05 08:49:03;;;;;;;;;;;21.50;90.80;;;;;;5094837;28;19951;-71
2023/08/05 08:51:29;;;;;;;;;;;21.50;90.80;;;;;;5095031;28;19961;-71
2023/08/05 08:53:55;;;;;;;;;;;21.50;90.80;;;;;;5095070;28;19912;-70
2023/08/05 08:56:20;;;;;;;;;;;21.50;90.80;;;;;;5094591;28;19908;-73
2023/08/05 08:58:46;;;;;;;;;;;21.50;90.70;;;;;;5094851;28;20006;-71
2023/08/05 09:01:14;;;;;;;;;;;21.50;90.80;;;;;;5094447;28;20278;-71
2023/08/05 09:03:41;;;;;;;;;;;21.50;90.80;;;;;;5094719;28;19912;-71
2023/08/05 09:06:06;;;;;;;;;;;21.50;90.80;;;;;;5094491;28;19927;-71
2023/08/05 09:08:33;;;;;;;;;;;21.50;90.80;;;;;;5094453;28;19909;-71
2023/08/05 09:11:00;;;;;;;;;;;21.50;90.80;;;;;;5094738;28;20206;-71
2023/08/05 09:13:25;;;;;;;;;;;21.50;90.80;;;;;;5094362;28;19932;-71
2023/08/05 09:15:53;;;;;;;;;;;21.50;90.80;;;;;;5093745;28;20010;-71
2023/08/05 09:18:19;;;;;;;;;;;21.50;90.80;;;;;;5095049;28;20020;-72
2023/08/05 09:20:44;;;;;;;;;;;21.50;90.70;;;;;;5094396;28;19908;-72
2023/08/05 09:23:10;;;;;;;;;;;21.50;90.80;;;;;;5094985;28;20251;-72
2023/08/05 09:25:40;;;;;;;;;;;21.50;90.80;;;;;;5094535;28;19953;-72
2023/08/05 09:28:06;;;;;;;;;;;21.50;90.80;;;;;;5092929;28;20375;-72
2023/08/05 09:30:32;;;;;;;;;;;21.50;90.70;;;;;;5094190;28;19961;-72
2023/08/05 09:32:58;;;;;;;;;;;21.50;90.70;;;;;;5093987;28;20277;-72
2023/08/05 09:35:24;;;;;;;;;;;21.50;90.70;;;;;;5094302;28;19912;-72
2023/08/05 09:37:51;;;;;;;;;;;21.50;90.70;;;;;;5094479;28;19912;-72
2023/08/05 09:40:28;;;;;;;;;;;21.50;90.70;;;;;;5094570;28;19916;-72
2023/08/05 09:42:57;;;;;;;;;;;21.50;90.70;;;;;;5093887;28;20310;-72
2023/08/05 09:45:25;;;;;;;;;;;21.50;90.70;;;;;;5094158;28;19926;-72
2023/08/05 09:47:55;;;;;;;;;;;21.50;90.70;;;;;;5093916;28;19954;-72
2023/08/05 09:50:22;;;;;;;;;;;21.50;90.70;;;;;;5094317;28;19962;-72
2023/08/05 09:52:49;;;;;;;;;;;21.50;90.70;;;;;;5094078;28;19912;-72
2023/08/05 09:55:16;;;;;;;;;;;21.50;90.70;;;;;;5093713;28;19912;-72
2023/08/05 09:57:42;;;;;;;;;;;21.50;90.70;;;;;;5093957;28;19916;-71
2023/08/05 10:00:08;;;;;;;;;;;21.50;90.70;;;;;;5094246;28;19912;-71
2023/08/05 10:02:34;;;;;;;;;;;21.50;90.70;;;;;;5093668;28;19915;-72
2023/08/05 10:05:00;;;;;;;;;;;21.50;90.70;;;;;;5093527;28;20408;-71
2023/08/05 10:07:27;;;;;;;;;;;21.50;90.70;;;;;;5094246;28;19912;-72
2023/08/05 10:09:53;;;;;;;;;;;21.50;90.70;;;;;;5093783;28;19908;-72
2023/08/05 10:12:23;;;;;;;;;;;21.50;90.70;;;;;;5093706;28;20385;-71
2023/08/05 10:14:49;;;;;;;;;;;21.50;90.70;;;;;;5093542;28;19934;-72
2023/08/05 10:17:16;;;;;;;;;;;21.40;90.70;;;;;;5093555;28;19995;-72
2023/08/05 10:19:45;;;;;;;;;;;21.50;90.70;;;;;;5093860;28;19923;-72
2023/08/05 10:22:10;;;;;;;;;;;21.50;90.70;;;;;;5093499;28;20370;-71
2023/08/05 10:25:08;;;;;;;;;;;21.50;90.70;;;;;;5093592;28;19908;-72
2023/08/05 10:27:37;;;;;;;;;;;21.40;90.60;;;;;;5084350;28;19915;-72
2023/08/05 10:30:08;;;;;;;;;;;21.40;90.90;;;;;;5097773;28;19915;-72
2023/08/05 10:32:35;;;;;;;;;;;21.40;90.70;;;;;;5097858;28;19912;-72
2023/08/05 10:35:19;;;;;;;;;;;21.40;90.60;;;;;;5097956;28;19997;-72
2023/08/05 10:37:48;;;;;;;;;;;21.50;90.70;;;;;;5097687;28;20285;-72
2023/08/05 10:40:34;;;;;;;;;;;21.40;90.60;;;;;;5096415;28;20274;-72
2023/08/05 10:42:59;;;;;;;;;;;21.40;90.60;;;;;;5097414;28;20057;-72
2023/08/05 10:45:25;;;;;;;;;;;21.40;90.60;;;;;;5097185;28;19963;-72
2023/08/05 10:47:50;;;;;;;;;;;21.40;90.60;;;;;;5097252;28;20349;-71
2023/08/05 10:50:16;;;;;;;;;;;21.40;90.60;;;;;;5097259;28;19912;-71
2023/08/05 10:52:41;;;;;;;;;;;21.40;90.60;;;;;;5097085;28;19970;-70
2023/08/05 10:55:10;;;;;;;;;;;21.40;90.60;;;;;;5097049;28;20424;-71
2023/08/05 10:57:39;;;;;;;;;;;21.40;90.60;;;;;;5096015;28;19912;-71
2023/08/05 11:00:07;;;;;;;;;;;21.40;90.60;;;;;;5097260;28;19994;-72
2023/08/05 11:02:32;;;;;;;;;;;21.40;90.60;;;;;;5096939;28;19908;-71
2023/08/05 11:05:08;;;;;;;;;;;21.40;90.70;;;;;;5097147;28;20269;-70
2023/08/05 11:07:36;;;;;;;;;;;21.40;90.60;;;;;;5096896;28;19915;-71
2023/08/05 11:10:05;;;;;;;;;;;21.40;90.60;;;;;;5096980;28;19908;-72
2023/08/05 11:12:31;;;;;;;;;;;21.40;90.60;;;;;;5096818;28;19919;-72
2023/08/05 11:14:57;;;;;;;;;;;21.40;90.60;;;;;;5097007;28;20007;-71
2023/08/05 11:17:22;;;;;;;;;;;21.40;90.60;;;;;;5096701;28;19912;-71
2023/08/05 11:19:55;;;;;;;;;;;21.40;90.60;;;;;;5095893;28;19919;-72
2023/08/05 11:22:21;;;;;;;;;;;21.40;90.70;;;;;;5096869;28;19908;-72
2023/08/05 11:24:46;;;;;;;;;;;21.40;90.60;;;;;;5096713;28;19908;-72
2023/08/05 11:27:12;;;;;;;;;;;21.40;90.60;;;;;;5095408;28;19908;-71
2023/08/05 11:29:39;;;;;;;;;;;21.40;90.90;;;;;;5096710;28;20294;-71
2023/08/05 11:32:04;;;;;;;;;;;21.40;90.60;;;;;;5096580;28;19912;-71
2023/08/05 11:34:30;;;;;;;;;;;21.40;90.70;;;;;;5096570;28;19919;-74
2023/08/05 11:36:56;;;;;;;;;;;21.40;90.60;;;;;;5096307;28;19934;-73
2023/08/05 11:39:22;;;;;;;;;;;21.40;90.60;;;;;;5094097;28;19908;-74
2023/08/05 11:41:48;;;;;;;;;;;21.40;90.60;;;;;;5096453;28;19977;-71
2023/08/05 11:44:16;;;;;;;;;;;21.40;90.60;;;;;;5096182;28;20283;-71
2023/08/05 11:46:41;;;;;;;;;;;21.40;90.60;;;;;;5096311;28;19908;-71
2023/08/05 11:49:13;;;;;;;;;;;21.40;90.70;;;;;;5096323;28;20354;-72
2023/08/05 11:51:45;;;;;;;;;;;21.40;90.60;;;;;;5096223;28;19916;-72
2023/08/05 11:54:10;;;;;;;;;;;21.40;90.60;;;;;;5096327;28;19916;-71
2023/08/05 11:56:36;;;;;;;;;;;21.40;90.60;;;;;;5095862;28;19999;-71
2023/08/05 11:59:01;;;;;;;;;;;21.40;90.60;;;;;;5096192;28;19916;-71
2023/08/05 12:01:26;;;;;;;;;;;21.40;90.60;;;;;;5096241;28;19912;-75
2023/08/05 12:03:52;;;;;;;;;;;21.40;90.70;;;;;;5096000;28;19908;-74
2023/08/05 12:06:19;;;;;;;;;;;21.40;90.70;;;;;;5096074;28;20006;-76
2023/08/05 12:08:44;;;;;;;;;;;21.40;90.70;;;;;;5095897;28;20019;-72
2023/08/05 12:11:12;;;;;;;;;;;21.40;90.70;;;;;;5094788;28;20359;-73
2023/08/05 12:13:37;;;;;;;;;;;21.40;90.70;;;;;;5095925;28;19970;-76
2023/08/05 12:16:13;;;;;;;;;;;21.40;90.70;;;;;;5095656;28;19908;-73
2023/08/05 12:18:45;;;;;;;;;;;21.40;90.70;;;;;;5095893;28;20023;-74
2023/08/05 12:21:11;;;;;;;;;;;21.40;90.70;;;;;;5095447;28;19908;-72
2023/08/05 12:23:40;;;;;;;;;;;21.40;90.70;;;;;;5094575;28;19908;-71
2023/08/05 12:26:09;;;;;;;;;;;21.40;90.70;;;;;;5095234;28;20006;-72
2023/08/05 12:28:36;;;;;;;;;;;21.40;90.70;;;;;;5095158;28;19938;-72
2023/08/05 12:31:01;;;;;;;;;;;21.40;90.70;;;;;;5095361;28;19958;-72
2023/08/05 12:33:27;;;;;;;;;;;21.40;90.70;;;;;;5095339;28;19956;-72
2023/08/05 12:35:53;;;;;;;;;;;21.40;90.60;;;;;;5095486;28;19916;-71
2023/08/05 12:38:19;;;;;;;;;;;21.40;90.70;;;;;;5095825;28;19995;-74
2023/08/05 12:40:44;;;;;;;;;;;21.40;90.60;;;;;;5095538;28;19950;-72
2023/08/05 12:43:12;;;;;;;;;;;21.40;90.60;;;;;;5095147;28;20019;-71
2023/08/05 12:45:38;;;;;;;;;;;21.40;90.60;;;;;;5095402;28;19965;-71
2023/08/05 12:48:03;;;;;;;;;;;21.40;90.60;;;;;;5095260;28;20011;-72
2023/08/05 12:50:29;;;;;;;;;;;21.40;90.60;;;;;;5095060;28;19912;-72
2023/08/05 12:52:54;;;;;;;;;;;21.40;90.70;;;;;;5095256;28;20404;-73
2023/08/05 12:55:21;;;;;;;;;;;21.40;90.60;;;;;;5094018;28;21306;-73
2023/08/05 12:57:47;;;;;;;;;;;21.40;90.60;;;;;;5094939;28;19908;-72
2023/08/05 13:00:12;;;;;;;;;;;21.40;90.60;;;;;;5094855;28;19908;-74
2023/08/05 13:02:38;;;;;;;;;;;21.40;90.60;;;;;;5095185;28;19957;-74
2023/08/05 13:05:04;;;;;;;;;;;21.40;90.60;;;;;;5094956;28;20410;-74
2023/08/05 13:07:29;;;;;;;;;;;21.40;90.60;;;;;;5094907;28;20377;-74
2023/08/05 13:09:55;;;;;;;;;;;21.40;90.60;;;;;;5094849;28;20370;-72
2023/08/05 13:12:20;;;;;;;;;;;21.40;90.60;;;;;;5094485;28;19912;-73
2023/08/05 13:14:46;;;;;;;;;;;21.40;90.60;;;;;;5094298;28;19955;-72
2023/08/05 13:17:11;;;;;;;;;;;21.40;90.70;;;;;;5094692;28;20446;-71
2023/08/05 13:19:37;;;;;;;;;;;21.40;90.70;;;;;;5094897;28;19931;-71
2023/08/05 13:22:02;;;;;;;;;;;21.40;90.60;;;;;;5094679;28;19942;-72
2023/08/05 13:24:28;;;;;;;;;;;21.40;90.70;;;;;;5094548;28;19948;-73
2023/08/05 13:26:53;;;;;;;;;;;21.40;90.60;;;;;;5094234;28;19912;-73
2023/08/05 13:29:19;;;;;;;;;;;21.40;90.60;;;;;;5094307;28;19957;-71
2023/08/05 13:31:44;;;;;;;;;;;21.40;90.70;;;;;;5094177;28;19912;-71
2023/08/05 13:34:10;;;;;;;;;;;21.40;90.70;;;;;;5094440;28;19912;-74
2023/08/05 13:36:35;;;;;;;;;;;21.40;90.70;;;;;;5094435;28;19908;-72
2023/08/05 13:39:01;;;;;;;;;;;21.40;90.70;;;;;;5094380;28;20011;-73
2023/08/05 13:41:26;;;;;;;;;;;21.40;90.60;;;;;;5094539;28;19915;-74
2023/08/05 13:43:52;;;;;;;;;;;21.40;90.70;;;;;;5094390;28;19955;-72
2023/08/05 13:46:17;;;;;;;;;;;21.30;90.60;;;;;;5092486;28;19927;-71
2023/08/05 13:48:43;;;;;;;;;;;21.40;90.70;;;;;;5093977;28;19935;-72
2023/08/05 13:51:09;;;;;;;;;;;21.30;90.60;;;;;;5094243;28;19950;-72
2023/08/05 13:53:34;;;;;;;;;;;21.40;90.70;;;;;;5093788;28;20014;-71
2023/08/05 13:56:00;;;;;;;;;;;21.40;90.70;;;;;;5093480;28;19951;-73
2023/08/05 13:58:26;;;;;;;;;;;21.30;90.60;;;;;;5093574;28;19934;-74
2023/08/05 14:00:55;;;;;;;;;;;21.40;90.70;;;;;;5093627;28;19908;-73
2023/08/05 14:03:21;;;;;;;;;;;21.30;90.60;;;;;;5094046;28;19912;-72
2023/08/05 14:05:46;;;;;;;;;;;21.30;90.70;;;;;;5094465;28;19908;-73
2023/08/05 14:08:11;;;;;;;;;;;21.30;90.60;;;;;;5093893;28;19908;-73
2023/08/05 14:10:37;;;;;;;;;;;21.40;90.70;;;;;;5094043;28;20068;-73